Time;durP1;ratioP1;P1;durP2;ratioP2;P2;SDS_P1;SDS_P2;PMS_P1;PMS_P2;Temp;Humidity;BMP_temperature;BMP_pressure;BME280_temperature;BME280_humidity;BME280_pressure;Samples;Min_cycle;Max_cycle;Signal;HPM_P1;HPM_P2
2024/01/28 00:12:38;;;;;;;6.85;1.08;;;-0.10;99.90;;;;;;510676;26;20319;-67
2024/01/28 00:15:04;;;;;;;3.45;1.50;;;-0.10;99.90;;;;;;5015182;22;20069;-67
2024/01/28 00:17:30;;;;;;;4.65;1.00;;;-0.10;99.90;;;;;;4106387;28;10001698;-66
2024/01/28 00:19:55;;;;;;;3.83;1.20;;;-0.10;99.90;;;;;;4989614;28;20074;-66
2024/01/28 00:22:21;;;;;;;3.05;0.95;;;-0.10;99.90;;;;;;4995047;28;20065;-66
2024/01/28 00:24:47;;;;;;;3.10;0.80;;;-0.10;99.90;;;;;;4981144;28;20173;-66
2024/01/28 00:27:12;;;;;;;3.15;0.68;;;-0.10;99.90;;;;;;4983231;28;20046;-66
2024/01/28 00:29:38;;;;;;;4.82;1.20;;;0.00;99.90;;;;;;4987861;28;20043;-66
2024/01/28 00:32:04;;;;;;;6.68;1.80;;;-0.10;99.90;;;;;;4981281;28;20067;-66
2024/01/28 00:34:29;;;;;;;3.72;1.13;;;-0.10;99.90;;;;;;4978044;28;20446;-66
2024/01/28 00:36:55;;;;;;;4.13;0.98;;;-0.20;99.90;;;;;;4976122;28;20185;-66
2024/01/28 00:39:21;;;;;;;2.95;1.17;;;-0.20;99.90;;;;;;4982622;28;20062;-66
2024/01/28 00:41:46;;;;;;;4.15;0.85;;;-0.30;99.90;;;;;;4983213;28;20116;-66
2024/01/28 00:44:12;;;;;;;5.63;1.08;;;-0.30;99.90;;;;;;4986073;28;20081;-66
2024/01/28 00:46:37;;;;;;;3.92;0.98;;;-0.30;99.90;;;;;;4980469;28;20075;-66
2024/01/28 00:49:03;;;;;;;3.72;1.23;;;-0.30;99.90;;;;;;4981231;28;20405;-66
2024/01/28 00:51:31;;;;;;;3.30;0.88;;;-0.30;99.90;;;;;;4983417;28;20502;-66
2024/01/28 00:53:57;;;;;;;13.15;1.90;;;-0.30;99.90;;;;;;4978074;28;20045;-66
2024/01/28 00:56:23;;;;;;;3.35;1.17;;;-0.30;99.90;;;;;;4985070;28;20061;-66
2024/01/28 00:58:49;;;;;;;6.03;2.10;;;-0.30;99.90;;;;;;4982362;28;20042;-66
2024/01/28 01:01:14;;;;;;;4.18;1.17;;;-0.30;99.90;;;;;;4976316;28;20038;-66
2024/01/28 01:03:40;;;;;;;1.23;0.60;;;-0.30;99.90;;;;;;4981384;28;20045;-66
2024/01/28 01:06:06;;;;;;;6.18;1.30;;;-0.30;99.90;;;;;;4988472;28;20042;-66
2024/01/28 01:08:32;;;;;;;1.92;0.88;;;-0.40;99.90;;;;;;4984776;28;20441;-66
2024/01/28 01:11:03;;;;;;;4.25;1.00;;;-0.50;99.90;;;;;;4984601;28;20038;-67
2024/01/28 01:13:32;;;;;;;6.78;1.10;;;-0.40;99.90;;;;;;4980034;28;20049;-66
2024/01/28 01:15:58;;;;;;;4.75;0.77;;;-0.40;99.90;;;;;;4983498;28;20085;-66
2024/01/28 01:18:24;;;;;;;2.58;1.17;;;-0.30;99.90;;;;;;4981582;28;20078;-66
2024/01/28 01:20:50;;;;;;;6.32;1.52;;;-0.30;99.90;;;;;;4981914;28;20043;-67
2024/01/28 01:23:16;;;;;;;4.50;2.05;;;-0.40;99.90;;;;;;4981979;28;20046;-66
2024/01/28 01:25:41;;;;;;;3.33;1.02;;;-0.40;99.90;;;;;;4983155;28;20127;-66
2024/01/28 01:28:07;;;;;;;6.82;1.48;;;-0.50;99.90;;;;;;4987095;28;20042;-66
2024/01/28 01:30:33;;;;;;;4.47;1.10;;;-0.50;99.90;;;;;;4977158;28;20042;-66
2024/01/28 01:32:58;;;;;;;2.83;0.85;;;-0.50;99.90;;;;;;4974825;28;20069;-66
2024/01/28 01:35:24;;;;;;;4.80;1.17;;;-0.40;99.90;;;;;;4982977;28;20038;-66
2024/01/28 01:37:49;;;;;;;4.35;1.02;;;-0.40;99.90;;;;;;4985702;28;20034;-66
2024/01/28 01:40:15;;;;;;;5.57;1.27;;;-0.40;99.90;;;;;;4985694;28;20054;-66
2024/01/28 01:42:44;;;;;;;1.77;0.80;;;-0.40;99.90;;;;;;4987099;28;20583;-66
2024/01/28 01:45:09;;;;;;;3.25;0.90;;;-0.30;99.90;;;;;;4975364;28;20034;-66
2024/01/28 01:47:35;;;;;;;3.13;1.05;;;-0.30;99.90;;;;;;4974002;28;20039;-66
2024/01/28 01:50:02;;;;;;;5.85;0.82;;;-0.30;99.90;;;;;;4981549;28;20062;-67
2024/01/28 01:52:29;;;;;;;1.73;0.60;;;-0.30;99.90;;;;;;4983503;28;20050;-66
2024/01/28 01:54:55;;;;;;;5.50;1.02;;;-0.20;99.90;;;;;;4985974;28;20046;-66
2024/01/28 01:57:21;;;;;;;3.65;0.70;;;-0.20;99.90;;;;;;4982922;28;20042;-67
2024/01/28 01:59:48;;;;;;;3.70;0.93;;;-0.20;99.90;;;;;;4987871;28;20413;-66
2024/01/28 02:02:15;;;;;;;2.30;0.88;;;-0.10;99.90;;;;;;4987411;28;20085;-67
2024/01/28 02:04:40;;;;;;;6.80;0.98;;;-0.10;99.90;;;;;;4984715;28;20513;-66
2024/01/28 02:07:06;;;;;;;4.25;0.70;;;-0.20;99.90;;;;;;4984992;28;20035;-66
2024/01/28 02:09:34;;;;;;;2.83;0.85;;;-0.20;99.90;;;;;;4984076;28;20085;-66
2024/01/28 02:12:00;;;;;;;2.25;0.77;;;-0.10;99.90;;;;;;4977597;28;20103;-66
2024/01/28 02:14:31;;;;;;;2.80;0.98;;;-0.10;99.90;;;;;;4976087;28;20140;-66
2024/01/28 02:16:58;;;;;;;7.30;0.90;;;-0.10;99.90;;;;;;4987240;28;20042;-66
2024/01/28 02:19:24;;;;;;;5.85;1.10;;;0.00;99.90;;;;;;4982466;28;20417;-66
2024/01/28 02:21:49;;;;;;;5.60;1.33;;;0.10;99.90;;;;;;4985166;28;20049;-66
2024/01/28 02:24:15;;;;;;;2.50;0.77;;;0.10;99.90;;;;;;4987178;28;20077;-66
2024/01/28 02:26:40;;;;;;;5.63;1.63;;;0.10;99.90;;;;;;4984768;28;20038;-66
2024/01/28 02:29:06;;;;;;;4.30;1.17;;;0.10;99.90;;;;;;4979001;28;20062;-66
2024/01/28 02:31:32;;;;;;;5.22;0.90;;;0.10;99.90;;;;;;4979841;28;20041;-66
2024/01/28 02:33:58;;;;;;;7.15;1.30;;;0.10;99.90;;;;;;4987635;28;20121;-66
2024/01/28 02:36:24;;;;;;;7.45;0.82;;;0.10;99.90;;;;;;4984110;28;20054;-66
2024/01/28 02:38:50;;;;;;;4.07;1.05;;;0.10;99.90;;;;;;4979666;28;20035;-66
2024/01/28 02:41:15;;;;;;;4.88;1.05;;;0.10;99.90;;;;;;4980300;28;20038;-66
2024/01/28 02:43:41;;;;;;;4.32;1.00;;;0.10;99.90;;;;;;4979002;28;20494;-66
2024/01/28 02:46:06;;;;;;;4.32;0.98;;;0.10;99.90;;;;;;4981222;28;20038;-67
2024/01/28 02:48:32;;;;;;;7.15;1.27;;;0.10;99.90;;;;;;4987426;28;20038;-66
2024/01/28 02:50:58;;;;;;;5.47;1.10;;;0.10;99.90;;;;;;4981535;28;20442;-66
2024/01/28 02:53:23;;;;;;;4.10;0.90;;;0.10;99.90;;;;;;4984902;28;20505;-66
2024/01/28 02:55:49;;;;;;;6.00;1.15;;;0.10;99.90;;;;;;4976600;28;20053;-66
2024/01/28 02:58:16;;;;;;;8.13;1.20;;;0.10;99.90;;;;;;4982734;28;20039;-66
2024/01/28 03:00:41;;;;;;;5.28;0.80;;;0.10;99.90;;;;;;4986818;28;20498;-66
2024/01/28 03:03:08;;;;;;;3.95;1.00;;;0.10;99.90;;;;;;4978756;28;20112;-66
2024/01/28 03:05:34;;;;;;;2.72;0.98;;;0.10;99.90;;;;;;4981080;28;20042;-66
2024/01/28 03:08:00;;;;;;;6.15;0.93;;;0.10;99.90;;;;;;4982344;28;20047;-66
2024/01/28 03:10:26;;;;;;;2.10;0.65;;;0.20;99.90;;;;;;4983102;28;20543;-66
2024/01/28 03:12:52;;;;;;;3.72;0.85;;;0.20;99.90;;;;;;4977398;28;20110;-66
2024/01/28 03:15:18;;;;;;;5.50;0.85;;;0.20;99.90;;;;;;4983250;28;20164;-66
2024/01/28 03:17:43;;;;;;;6.47;1.02;;;0.20;99.90;;;;;;4985452;28;20046;-67
2024/01/28 03:20:10;;;;;;;6.80;0.90;;;0.30;99.90;;;;;;4987581;28;20482;-66
2024/01/28 03:22:35;;;;;;;2.90;0.88;;;0.30;99.90;;;;;;4984286;28;20390;-66
2024/01/28 03:25:01;;;;;;;2.22;0.90;;;0.30;99.90;;;;;;4983655;28;20132;-66
2024/01/28 03:27:26;;;;;;;3.15;0.70;;;0.30;99.90;;;;;;4986536;28;20053;-66
2024/01/28 03:29:52;;;;;;;3.65;0.80;;;0.30;99.90;;;;;;4983796;28;20049;-66
2024/01/28 03:32:17;;;;;;;1.90;0.63;;;0.30;99.90;;;;;;4982233;28;20045;-66
2024/01/28 03:34:43;;;;;;;4.10;1.00;;;0.30;99.90;;;;;;4973353;28;20422;-66
2024/01/28 03:37:09;;;;;;;4.13;0.60;;;0.20;99.90;;;;;;4976549;28;20121;-66
2024/01/28 03:39:34;;;;;;;9.95;0.90;;;0.20;99.90;;;;;;4977839;28;20034;-66
2024/01/28 03:42:00;;;;;;;2.88;0.85;;;0.10;99.90;;;;;;4980374;28;20137;-65
2024/01/28 03:44:25;;;;;;;2.17;0.68;;;0.10;99.90;;;;;;4986246;28;20133;-65
2024/01/28 03:46:53;;;;;;;6.38;1.13;;;0.10;99.90;;;;;;4983601;28;20069;-66
2024/01/28 03:49:19;;;;;;;1.13;0.40;;;0.20;99.90;;;;;;4986549;28;20045;-66
2024/01/28 03:51:45;;;;;;;2.40;0.70;;;0.20;99.90;;;;;;4978576;28;20035;-66
2024/01/28 03:54:11;;;;;;;4.40;0.63;;;0.20;99.90;;;;;;4986280;28;20113;-66
2024/01/28 03:56:37;;;;;;;1.98;0.50;;;0.30;99.90;;;;;;4980641;28;20141;-66
2024/01/28 03:59:03;;;;;;;3.28;1.00;;;0.20;99.90;;;;;;4985113;28;20069;-66
2024/01/28 04:01:35;;;;;;;3.92;0.68;;;0.20;99.90;;;;;;4982248;28;20088;-66
2024/01/28 04:04:01;;;;;;;2.03;0.60;;;0.20;99.90;;;;;;4986058;28;20097;-66
2024/01/28 04:06:26;;;;;;;1.13;0.55;;;0.20;99.90;;;;;;4983792;28;20038;-66
2024/01/28 04:08:55;;;;;;;3.63;0.60;;;0.20;99.90;;;;;;4984578;28;20450;-66
2024/01/28 04:11:26;;;;;;;3.58;0.60;;;0.20;99.90;;;;;;4985977;28;20062;-66
2024/01/28 04:13:54;;;;;;;1.52;0.68;;;0.20;99.90;;;;;;4978249;28;20156;-66
2024/01/28 04:16:27;;;;;;;2.72;0.80;;;0.20;99.90;;;;;;4990625;28;20146;-66
2024/01/28 04:18:54;;;;;;;2.15;0.63;;;0.20;99.90;;;;;;4987225;28;20046;-66
2024/01/28 04:21:20;;;;;;;0.90;0.45;;;0.20;99.90;;;;;;4988309;28;20456;-66
2024/01/28 04:23:48;;;;;;;1.30;0.50;;;0.20;99.90;;;;;;4985619;28;20109;-66
2024/01/28 04:26:14;;;;;;;1.63;1.13;;;0.20;99.90;;;;;;4986718;28;20121;-66
2024/01/28 04:28:40;;;;;;;1.98;0.70;;;0.10;99.90;;;;;;4981987;28;20713;-66
2024/01/28 04:31:07;;;;;;;3.63;0.55;;;0.20;99.90;;;;;;4982218;28;20042;-66
2024/01/28 04:33:32;;;;;;;1.42;0.70;;;0.20;99.90;;;;;;4982179;28;20076;-66
2024/01/28 04:35:58;;;;;;;3.33;1.00;;;0.20;99.90;;;;;;4987087;28;20514;-66
2024/01/28 04:38:23;;;;;;;3.38;0.75;;;0.20;99.90;;;;;;4981543;28;20069;-66
2024/01/28 04:40:49;;;;;;;1.73;0.65;;;0.20;99.90;;;;;;4985257;28;20053;-66
2024/01/28 04:43:15;;;;;;;3.17;0.52;;;0.20;99.90;;;;;;4983100;28;20038;-66
2024/01/28 04:45:41;;;;;;;0.80;0.40;;;0.20;99.90;;;;;;4984073;28;20426;-66
2024/01/28 04:48:07;;;;;;;1.80;0.40;;;0.20;99.90;;;;;;4982938;28;20114;-66
2024/01/28 04:50:32;;;;;;;1.55;0.47;;;0.20;99.90;;;;;;4988237;28;20657;-66
2024/01/28 04:53:01;;;;;;;2.50;0.60;;;0.20;99.90;;;;;;4984331;28;20113;-66
2024/01/28 04:55:26;;;;;;;2.00;0.35;;;0.20;99.90;;;;;;4989032;28;20130;-66
2024/01/28 04:57:52;;;;;;;2.85;0.60;;;0.20;99.90;;;;;;4987329;28;20150;-66
2024/01/28 05:00:18;;;;;;;6.15;0.60;;;0.10;99.90;;;;;;4982564;28;20034;-66
2024/01/28 05:02:44;;;;;;;1.13;0.50;;;;;;;;;;4988258;28;20045;-66
2024/01/28 05:05:10;;;;;;;2.60;0.47;;;;;;;;;;4989221;28;20490;-66
2024/01/28 05:07:36;;;;;;;2.50;0.40;;;;;;;;;;4985827;28;20054;-66
2024/01/28 05:10:03;;;;;;;0.32;0.30;;;;;;;;;;4984386;28;20075;-66
2024/01/28 05:12:30;;;;;;;2.95;0.52;;;;;;;;;;4983225;28;20065;-66
2024/01/28 05:14:56;;;;;;;1.85;0.65;;;;;;;;;;4987465;28;20042;-66
2024/01/28 05:17:23;;;;;;;1.52;0.40;;;;;;;;;;4987199;28;20069;-66
2024/01/28 05:19:49;;;;;;;5.97;0.88;;;;;;;;;;4986324;28;20118;-66
2024/01/28 05:22:15;;;;;;;3.13;0.70;;;;;;;;;;4985942;28;20034;-66
2024/01/28 05:24:42;;;;;;;3.35;0.40;;;;;;;;;;4985741;28;20039;-66
2024/01/28 05:27:08;;;;;;;1.63;0.70;;;;;;;;;;4987852;28;20042;-66
2024/01/28 05:29:35;;;;;;;0.45;0.38;;;;;;;;;;4984607;28;20053;-66
2024/01/28 05:32:01;;;;;;;1.75;0.43;;;;;;;;;;4982397;28;20050;-66
2024/01/28 05:34:27;;;;;;;1.30;0.50;;;;;;;;;;4977798;28;20041;-66
2024/01/28 05:36:53;;;;;;;0.70;0.38;;;;;;;;;;4986438;28;20046;-66
2024/01/28 05:39:19;;;;;;;3.50;0.50;;;;;;;;;;4978967;28;20151;-66
2024/01/28 05:41:48;;;;;;;1.23;0.45;;;;;;;;;;4985080;28;20134;-66
2024/01/28 05:44:14;;;;;;;2.08;0.85;;;;;;;;;;4981698;28;20039;-66
2024/01/28 05:46:45;;;;;;;0.95;0.50;;;;;;;;;;4984958;28;20093;-66
2024/01/28 05:49:13;;;;;;;3.28;0.50;;;;;;;;;;4978749;28;20054;-66
2024/01/28 05:51:40;;;;;;;4.13;0.50;;;;;;;;;;4984515;28;20474;-66
2024/01/28 05:54:21;;;;;;;2.05;0.50;;;;;;;;;;4980444;28;20042;-66
2024/01/28 05:57:00;;;;;;;4.95;0.43;;;;;;;;;;4982656;28;20066;-66
2024/01/28 05:59:27;;;;;;;3.53;0.45;;;;;;;;;;4974642;28;20077;-66
2024/01/28 06:02:03;;;;;;;2.20;0.43;;;;;;;;;;4979191;28;20517;-66
2024/01/28 06:04:43;;;;;;;1.05;0.40;;;;;;;;;;4985178;28;20049;-66
2024/01/28 06:07:11;;;;;;;2.22;0.45;;;;;;;;;;4986641;28;20076;-66
2024/01/28 06:09:40;;;;;;;0.73;0.30;;;;;;;;;;4983765;28;20379;-66
2024/01/28 06:12:07;;;;;;;2.75;0.57;;;;;;;;;;4981386;28;20052;-66
2024/01/28 06:14:35;;;;;;;1.63;0.47;;;;;;;;;;4980928;28;20195;-65
2024/01/28 06:17:10;;;;;;;0.73;0.40;;;;;;;;;;4984419;28;20038;-66
2024/01/28 06:19:44;;;;;;;2.22;0.47;;;;;;;;;;4986060;28;20125;-66
2024/01/28 06:22:14;;;;;;;1.85;0.40;;;;;;;;;;4974596;28;20093;-66
2024/01/28 06:24:51;;;;;;;2.08;0.40;;;;;;;;;;4984682;28;20520;-66
2024/01/28 06:27:22;;;;;;;3.15;0.30;;;;;;;;;;4983572;28;20088;-66
2024/01/28 06:29:57;;;;;;;1.38;0.30;;;;;;;;;;4984533;28;20051;-66
2024/01/28 06:32:23;;;;;;;1.65;0.35;;;;;;;;;;4981024;28;20050;-66
2024/01/28 06:34:55;;;;;;;1.60;0.20;;;;;;;;;;4978818;28;20045;-66
2024/01/28 06:37:24;;;;;;;1.65;0.40;;;;;;;;;;4987975;28;20038;-66
2024/01/28 06:39:51;;;;;;;1.35;0.43;;;;;;;;;;4979831;28;20035;-66
2024/01/28 06:42:20;;;;;;;1.35;0.40;;;;;;;;;;4986664;28;20085;-66
2024/01/28 06:44:49;;;;;;;0.20;0.20;;;;;;;;;;4980097;28;20061;-66
2024/01/28 06:47:21;;;;;;;0.80;0.30;;;;;;;;;;4980370;28;20053;-66
2024/01/28 06:49:50;;;;;;;2.08;0.60;;;;;;;;;;4981919;28;20522;-65
2024/01/28 06:52:16;;;;;;;1.17;0.30;;;;;;;;;;4981851;28;20122;-66
2024/01/28 06:54:42;;;;;;;0.43;0.40;;;;;;;;;;4972593;28;20053;-66
2024/01/28 06:57:10;;;;;;;1.25;0.60;;;;;;;;;;4980645;28;20637;-66
2024/01/28 06:59:42;;;;;;;1.15;0.60;;;;;;;;;;4981687;28;20490;-66
2024/01/28 07:02:09;;;;;;;1.48;0.60;;;;;;;;;;4984874;28;20038;-65
2024/01/28 07:04:35;;;;;;;1.30;0.30;;;;;;;;;;4981516;28;20113;-65
2024/01/28 07:07:01;;;;;;;2.55;1.38;;;;;;;;;;4986333;28;20045;-65
2024/01/28 07:09:27;;;;;;;0.88;0.50;;;;;;;;;;4985280;28;20346;-66
2024/01/28 07:11:53;;;;;;;5.70;0.70;;;;;;;;;;4979890;28;20038;-66
2024/01/28 07:14:19;;;;;;;3.20;1.00;;;;;;;;;;4985668;28;20429;-66
2024/01/28 07:16:45;;;;;;;3.08;0.68;;;;;;;;;;4984549;28;20042;-67
2024/01/28 07:19:11;;;;;;;3.20;0.70;;;;;;;;;;4984445;28;20109;-67
2024/01/28 07:21:37;;;;;;;2.03;0.57;;;;;;;;;;4984641;28;20142;-66
2024/01/28 07:24:03;;;;;;;2.38;0.75;;;;;;;;;;4985903;28;20039;-66
2024/01/28 07:26:29;;;;;;;3.15;0.60;;;;;;;;;;4986525;28;20050;-66
2024/01/28 07:28:55;;;;;;;2.03;0.55;;;;;;;;;;4988999;28;20050;-66
2024/01/28 07:31:21;;;;;;;4.00;0.40;;;;;;;;;;4989968;28;20572;-67
2024/01/28 07:33:48;;;;;;;1.73;0.52;;;;;;;;;;4985572;28;20042;-66
2024/01/28 07:36:15;;;;;;;4.75;0.77;;;;;;;;;;4984189;28;20108;-67
2024/01/28 07:38:41;;;;;;;2.38;0.65;;;;;;;;;;4989656;28;20046;-68
2024/01/28 07:41:14;;;;;;;1.58;0.38;;;;;;;;;;4983664;28;20030;-66
2024/01/28 07:43:40;;;;;;;1.23;0.52;;;;;;;;;;4983107;28;20057;-66
2024/01/28 07:46:06;;;;;;;5.05;0.90;;;;;;;;;;4990666;28;20034;-65
2024/01/28 07:48:32;;;;;;;2.03;0.60;;;;;;;;;;4990447;28;20043;-66
2024/01/28 07:50:58;;;;;;;1.65;0.55;;;;;;;;;;4984744;28;20193;-66
2024/01/28 07:53:24;;;;;;;3.40;0.65;;;;;;;;;;4990731;28;20050;-65
2024/01/28 07:55:50;;;;;;;2.05;0.57;;;;;;;;;;4985116;28;20577;-66
2024/01/28 07:58:16;;;;;;;2.35;0.60;;;;;;;;;;4991198;28;20046;-66
2024/01/28 08:00:42;;;;;;;0.68;0.50;;;;;;;;;;4982624;28;20042;-65
2024/01/28 08:03:08;;;;;;;3.03;0.77;;;;;;;;;;4990553;28;20092;-66
2024/01/28 08:05:34;;;;;;;1.08;0.70;;;;;;;;;;4987874;28;20139;-67
2024/01/28 08:08:00;;;;;;;3.08;0.60;;;;;;;;;;4988846;28;20596;-68
2024/01/28 08:10:26;;;;;;;3.10;0.70;;;;;;;;;;4986728;28;20050;-65
2024/01/28 08:12:52;;;;;;;2.05;0.70;;;;;;;;;;4988462;28;20114;-66
2024/01/28 08:15:20;;;;;;;2.60;0.70;;;;;;;;;;4990451;28;20038;-69
2024/01/28 08:17:47;;;;;;;2.15;0.95;;;;;;;;;;4987276;28;20054;-68
2024/01/28 08:20:13;;;;;;;3.78;1.73;;;;;;;;;;4990250;28;20138;-66
2024/01/28 08:22:40;;;;;;;3.03;0.80;;;;;;;;;;4983229;28;20533;-67
2024/01/28 08:25:07;;;;;;;5.35;1.20;;;;;;;;;;4976653;28;20042;-65
2024/01/28 08:27:33;;;;;;;2.55;1.17;;;;;;;;;;4972949;28;20640;-66
2024/01/28 08:29:59;;;;;;;7.55;1.42;;;;;;;;;;4980881;28;20705;-65
2024/01/28 08:32:25;;;;;;;5.25;0.65;;;;;;;;;;4983789;28;20544;-66
2024/01/28 08:34:51;;;;;;;3.00;0.93;;;;;;;;;;4984791;28;20417;-67
2024/01/28 08:37:17;;;;;;;2.97;1.13;;;;;;;;;;4978205;28;20046;-64
2024/01/28 08:39:44;;;;;;;4.78;1.10;;;;;;;;;;4972701;28;20048;-65
2024/01/28 08:42:11;;;;;;;2.42;0.98;;;;;;;;;;4978904;28;20129;-65
2024/01/28 08:44:38;;;;;;;2.25;1.00;;;;;;;;;;4982395;28;20530;-65
2024/01/28 08:47:04;;;;;;;3.17;1.00;;;;;;;;;;4986006;28;20049;-65
2024/01/28 08:49:30;;;;;;;2.10;0.70;;;;;;;;;;4984174;28;20100;-65
2024/01/28 08:51:56;;;;;;;1.55;0.60;;;;;;;;;;4986568;28;20125;-65
2024/01/28 08:54:22;;;;;;;1.13;0.50;;;;;;;;;;4983452;28;20038;-66
2024/01/28 08:56:48;;;;;;;3.55;0.70;;;;;;;;;;4979762;28;20046;-66
2024/01/28 08:59:14;;;;;;;2.25;0.60;;;;;;;;;;4982379;28;20116;-66
2024/01/28 09:01:40;;;;;;;2.85;0.63;;;;;;;;;;4988888;28;20070;-66
2024/01/28 09:04:06;;;;;;;1.27;0.50;;;;;;;;;;4980908;28;20038;-65
2024/01/28 09:06:32;;;;;;;0.85;0.52;;;;;;;;;;4979058;28;20045;-66
2024/01/28 09:09:00;;;;;;;1.92;0.68;;;;;;;;;;4971724;28;20055;-66
2024/01/28 09:11:26;;;;;;;1.42;0.77;;;;;;;;;;4975103;28;20541;-66
2024/01/28 09:13:52;;;;;;;2.35;0.68;;;;;;;;;;4986230;28;20598;-65
2024/01/28 09:16:18;;;;;;;1.55;0.57;;;;;;;;;;4980115;28;20042;-65
2024/01/28 09:18:44;;;;;;;4.95;0.63;;;;;;;;;;4988064;28;20050;-65
2024/01/28 09:21:11;;;;;;;1.92;0.68;;;;;;;;;;4983114;28;20046;-66
2024/01/28 09:23:37;;;;;;;1.13;0.60;;;;;;;;;;4988195;28;20121;-66
2024/01/28 09:26:05;;;;;;;2.03;0.70;;;;;;;;;;4985817;28;20069;-66
2024/01/28 09:28:31;;;;;;;3.90;0.63;;;;;;;;;;4984459;28;20082;-66
2024/01/28 09:30:57;;;;;;;4.60;0.80;;;;;;;;;;4983988;28;20125;-66
2024/01/28 09:33:23;;;;;;;2.85;0.60;;;;;;;;;;4982178;28;20503;-66
2024/01/28 09:35:52;;;;;;;3.08;0.90;;;;;;;;;;4979101;28;20405;-66
2024/01/28 09:38:18;;;;;;;4.20;0.75;;;;;;;;;;4981145;28;20113;-66
2024/01/28 09:40:45;;;;;;;6.68;0.80;;;;;;;;;;4988377;28;20049;-66
2024/01/28 09:43:17;;;;;;;3.78;0.80;;;;;;;;;;4980574;28;20429;-65
2024/01/28 09:45:43;;;;;;;2.78;0.63;;;;;;;;;;4978215;28;20042;-65
2024/01/28 09:48:09;;;;;;;1.83;0.80;;;;;;;;;;4983917;28;20050;-66
2024/01/28 09:50:35;;;;;;;1.77;0.65;;;;;;;;;;4977271;28;20046;-64
2024/01/28 09:53:01;;;;;;;2.15;0.82;;;;;;;;;;4980341;28;20042;-65
2024/01/28 09:55:27;;;;;;;3.47;0.90;;;;;;;;;;4977727;28;20038;-65
2024/01/28 09:57:53;;;;;;;2.85;0.57;;;;;;;;;;4980111;28;20042;-65
2024/01/28 10:00:20;;;;;;;4.25;1.02;;;;;;;;;;4980774;28;20122;-66
2024/01/28 10:02:46;;;;;;;14.30;1.17;;;;;;;;;;4973960;28;20070;-66
2024/01/28 10:05:14;;;;;;;6.38;0.85;;;;;;;;;;4980205;28;20042;-65
2024/01/28 10:07:41;;;;;;;2.13;0.55;;;;;;;;;;4981976;28;20042;-65
2024/01/28 10:10:07;;;;;;;0.82;0.40;;;;;;;;;;4977980;28;20477;-66
2024/01/28 10:12:33;;;;;;;1.90;0.60;;;;;;;;;;4984667;28;20049;-65
2024/01/28 10:15:00;;;;;;;2.35;0.70;;;;;;;;;;4979486;28;20034;-66
2024/01/28 10:17:25;;;;;;;2.42;0.90;;;;;;;;;;4986816;28;20090;-65
2024/01/28 10:19:51;;;;;;;3.22;0.60;;;;;;;;;;4988461;28;20046;-65
2024/01/28 10:22:18;;;;;;;1.23;0.50;;;;;;;;;;4981117;28;20053;-65
2024/01/28 10:24:45;;;;;;;0.77;0.40;;;;;;;;;;4978941;28;20105;-66
2024/01/28 10:27:11;;;;;;;4.20;0.70;;;;;;;;;;4983063;28;20157;-66
2024/01/28 10:29:39;;;;;;;1.40;0.45;;;;;;;;;;4985753;28;20042;-66
2024/01/28 10:32:05;;;;;;;2.25;0.60;;;;;;;;;;4974357;28;20520;-66
2024/01/28 10:34:31;;;;;;;2.28;0.50;;;;;;;;;;4987592;28;20108;-65
2024/01/28 10:36:59;;;;;;;0.95;0.63;;;;;;;;;;4982086;28;20498;-66
2024/01/28 10:39:26;;;;;;;1.00;0.50;;;;;;;;;;4976183;28;20052;-66
2024/01/28 10:41:56;;;;;;;0.93;0.50;;;;;;;;;;4981473;28;20062;-66
2024/01/28 10:44:22;;;;;;;5.35;1.15;;;;;;;;;;4976047;28;20042;-66
2024/01/28 10:46:53;;;;;;;4.40;0.93;;;;;;;;;;4985435;28;20069;-66
2024/01/28 10:49:24;;;;;;;1.27;0.52;;;;;;;;;;4979965;28;20164;-66
2024/01/28 10:51:52;;;;;;;1.90;0.40;;;;;;;;;;4978571;28;20058;-66
2024/01/28 10:54:19;;;;;;;2.97;1.00;;;;;;;;;;4977736;28;20038;-66
2024/01/28 10:56:46;;;;;;;1.88;0.50;;;;;;;;;;4984709;28;20042;-65
2024/01/28 10:59:12;;;;;;;3.10;0.90;;;;;;;;;;4984491;28;20406;-66
2024/01/28 11:01:37;;;;;;;;;;;;;;;;;;4977574;28;20053;-66
2024/01/28 11:04:05;;;;;;;2.08;0.52;;;;;;;;;;4982510;28;19926;-67
2024/01/28 11:06:31;;;;;;;0.82;0.50;;;;;;;;;;4982267;28;20077;-65
2024/01/28 11:08:58;;;;;;;1.92;0.75;;;;;;;;;;4982780;28;20043;-66
2024/01/28 11:11:24;;;;;;;3.03;1.00;;;;;;;;;;4980565;28;20046;-66
2024/01/28 11:13:50;;;;;;;4.90;0.50;;;;;;;;;;4978125;28;20091;-66
2024/01/28 11:16:18;;;;;;;;;;;;;;;;;;4980112;28;20050;-66
2024/01/28 11:19:07;;;;;;;1.02;0.43;;;;;;;;;;4976272;28;19925;-66
2024/01/28 11:21:38;;;;;;;1.05;0.57;;;;;;;;;;4981992;28;20058;-66
2024/01/28 11:24:10;;;;;;;1.27;0.68;;;;;;;;;;4980525;28;20046;-66
2024/01/28 11:26:36;;;;;;;2.53;0.70;;;;;;;;;;4983572;28;20046;-66
2024/01/28 11:29:05;;;;;;;2.45;0.55;;;;;;;;;;4980332;28;20046;-67
2024/01/28 11:31:32;;;;;;;6.95;0.70;;;;;;;;;;4981580;28;20042;-66
2024/01/28 11:34:14;;;;;;;1.15;0.40;;;;;;;;;;4986571;28;20046;-66
2024/01/28 11:36:42;;;;;;;2.38;0.50;;;;;;;;;;4987283;28;20526;-65
2024/01/28 11:39:12;;;;;;;5.65;1.25;;;;;;;;;;4982003;28;20819;-66
2024/01/28 11:41:38;;;;;;;2.50;0.80;;;;;;;;;;4987214;28;20050;-66
2024/01/28 11:44:07;;;;;;;1.33;0.35;;;;;;;;;;4984866;28;20096;-66
2024/01/28 11:46:34;;;;;;;5.25;0.82;;;;;;;;;;4972149;28;20042;-66
2024/01/28 11:49:00;;;;;;;4.05;0.80;;;;;;;;;;4979766;28;20086;-66
2024/01/28 11:51:26;;;;;;;;;;;;;;;;;;4980726;28;20778;-66
2024/01/28 11:53:52;;;;;;;3.83;0.90;;;;;;;;;;4984611;28;19922;-65
2024/01/28 11:56:18;;;;;;;1.45;0.55;;;;;;;;;;4977892;28;20034;-66
2024/01/28 11:58:46;;;;;;;;;;;;;;;;;;4984392;28;20042;-65
2024/01/28 12:01:12;;;;;;;0.75;0.40;;;;;;;;;;4976763;28;19926;-66
2024/01/28 12:03:38;;;;;;;1.52;0.82;;;;;;;;;;5019132;23;20628;-65
2024/01/28 12:06:04;;;;;;;3.42;0.70;;;;;;;;;;5018970;28;20050;-65
2024/01/28 12:08:31;;;;;;;1.60;0.60;;;;;;;;;;5017263;28;20075;-65
2024/01/28 12:11:01;;;;;;;2.50;0.50;;;;;;;;;;5012312;28;20536;-65
2024/01/28 12:13:35;;;;;;;4.22;0.63;;;;;;;;;;5012249;28;20042;-66
2024/01/28 12:16:09;;;;;;;2.25;0.50;;;;;;;;;;5002053;28;20460;-66
2024/01/28 12:18:43;;;;;;;1.98;0.75;;;;;;;;;;5004028;28;20164;-66
2024/01/28 12:21:17;;;;;;;6.60;0.40;;;;;;;;;;5002488;28;20124;-66
2024/01/28 12:23:47;;;;;;;3.65;0.60;;;;;;;;;;4992033;28;20100;-66
2024/01/28 12:26:14;;;;;;;1.02;0.45;;;;;;;;;;4997792;28;20107;-65
2024/01/28 12:28:40;;;;;;;0.85;0.60;;;;;;;;;;5003171;28;20034;-65
2024/01/28 12:31:08;;;;;;;5.80;0.50;;;;;;;;;;4999841;28;20038;-65
2024/01/28 12:33:34;;;;;;;2.72;0.68;;;;;;;;;;5008029;28;20284;-66
2024/01/28 12:36:00;;;;;;;5.70;0.98;;;;;;;;;;5004071;28;20042;-65
2024/01/28 12:38:26;;;;;;;;;;;;;;;;;;5006825;28;20052;-65
2024/01/28 12:40:52;;;;;;;2.88;0.57;;;;;;;;;;5002570;28;19922;-65
2024/01/28 12:43:18;;;;;;;2.28;0.60;;;;;;;;;;4999680;28;20420;-65
2024/01/28 12:45:44;;;;;;;;;;;;;;;;;;5003429;28;20041;-65
2024/01/28 12:48:10;;;;;;;5.25;1.02;;;;;;;;;;5000515;28;19921;-65
2024/01/28 12:50:36;;;;;;;;;;;;;;;;;;5005217;28;20042;-65
2024/01/28 12:53:02;;;;;;;1.25;0.40;;;;;;;;;;5003833;28;19940;-65
2024/01/28 12:55:28;;;;;;;;;;;;;;;;;;5001516;28;20038;-65
2024/01/28 12:57:54;;;;;;;1.10;0.60;;;;;;;;;;5002288;28;19917;-65
2024/01/28 13:00:20;;;;;;;2.38;0.68;;;;;;;;;;5002616;28;20049;-65
2024/01/28 13:02:46;;;;;;;;;;;;;;;;;;5000652;28;20057;-65
2024/01/28 13:05:12;;;;;;;2.55;0.60;;;;;;;;;;5008172;28;20478;-64
2024/01/28 13:07:39;;;;;;;2.35;0.70;;;;;;;;;;5000620;28;20045;-65
2024/01/28 13:10:06;;;;;;;1.75;0.50;;;;;;;;;;5002925;28;20033;-64
2024/01/28 13:12:37;;;;;;;0.70;0.40;;;;;;;;;;5001663;28;20123;-64
2024/01/28 13:15:05;;;;;;;1.85;0.60;;;;;;;;;;5004181;28;20825;-64
2024/01/28 13:17:32;;;;;;;1.27;0.47;;;;;;;;;;5007825;28;20054;-65
2024/01/28 13:19:58;;;;;;;2.55;0.65;;;;;;;;;;5004908;28;20041;-64
2024/01/28 13:22:24;;;;;;;1.70;0.63;;;;;;;;;;5003587;28;20076;-65
2024/01/28 13:24:53;;;;;;;;;;;;;;;;;;5001303;28;20081;-64
2024/01/28 13:27:20;;;;;;;1.92;0.70;;;;;;;;;;5006331;28;19925;-64
2024/01/28 13:29:46;;;;;;;2.92;1.00;;;;;;;;;;5005123;28;20042;-64
2024/01/28 13:32:12;;;;;;;1.98;0.50;;;;;;;;;;5005684;28;20121;-65
2024/01/28 13:34:38;;;;;;;;;;;;;;;;;;5005619;28;20125;-65
2024/01/28 13:37:04;;;;;;;2.03;0.70;;;;;;;;;;5007886;28;19960;-65
2024/01/28 13:39:30;;;;;;;5.40;1.20;;;;;;;;;;5006261;28;20119;-65
2024/01/28 13:41:56;;;;;;;;;;;;;;;;;;5001740;28;20037;-65
2024/01/28 13:44:22;;;;;;;2.35;0.65;;;;;;;;;;5006958;28;19929;-65
2024/01/28 13:46:48;;;;;;;;;;;;;;;;;;5000018;28;20480;-65
2024/01/28 13:49:14;;;;;;;1.42;0.55;;;;;;;;;;5004653;28;19921;-65
2024/01/28 13:51:40;;;;;;;3.53;0.85;;;;;;;;;;4994369;28;20129;-65
2024/01/28 13:54:06;;;;;;;3.25;0.50;;;;;;;;;;4996366;28;20034;-65
2024/01/28 13:56:32;;;;;;;;;;;;;;;;;;5004633;28;20040;-65
2024/01/28 13:58:59;;;;;;;2.65;0.95;;;;;;;;;;5003090;28;19956;-65
2024/01/28 14:01:26;;;;;;;1.27;0.55;;;;;;;;;;4997681;28;20046;-65
2024/01/28 14:03:52;;;;;;;3.60;0.55;;;;;;;;;;4998494;28;20100;-65
2024/01/28 14:06:17;;;;;;;;;;;;;;;;;;5001037;28;20042;-65
2024/01/28 14:08:43;;;;;;;4.43;0.55;;;;;;;;;;5000254;28;19969;-65
2024/01/28 14:11:09;;;;;;;1.65;0.70;;;;;;;;;;4999009;28;20428;-65
2024/01/28 14:13:35;;;;;;;;;;;;;;;;;;5003564;28;20080;-65
2024/01/28 14:16:01;;;;;;;0.98;0.63;;;;;;;;;;5003054;28;20455;-65